createdAt,value
2023-05-02T00:02:01.898Z,21.38
2023-05-02T00:04:30.221Z,18.33
2023-05-02T00:06:57.949Z,22.27
2023-05-02T00:09:25.954Z,18.63
2023-05-02T00:11:53.560Z,20.55
2023-05-02T00:14:21.089Z,19.50
2023-05-02T00:16:48.624Z,19.27
2023-05-02T00:19:16.255Z,20.90
2023-05-02T00:21:43.672Z,22.73
2023-05-02T00:24:11.361Z,25.52
2023-05-02T00:26:38.828Z,18.05
2023-05-02T00:29:08.130Z,20.60
2023-05-02T00:31:36.361Z,19.50
2023-05-02T00:34:05.241Z,21.25
2023-05-02T00:36:32.984Z,21.90
2023-05-02T00:39:00.460Z,25.52
2023-05-02T00:41:27.992Z,21.50
2023-05-02T00:43:55.446Z,21.02
2023-05-02T00:46:23.150Z,20.73
2023-05-02T00:48:50.687Z,22.27
2023-05-02T00:51:18.458Z,20.75
2023-05-02T00:53:46.564Z,20.58
2023-05-02T00:56:13.978Z,21.70
2023-05-02T00:58:41.785Z,20.85
2023-05-02T01:01:17.805Z,24.02
2023-05-02T01:04:05.403Z,20.17
2023-05-02T01:06:52.231Z,22.70
2023-05-02T01:09:19.822Z,19.50
2023-05-02T01:12:05.513Z,20.20
2023-05-02T01:14:37.488Z,22.63
2023-05-02T01:17:07.457Z,25.05
2023-05-02T01:19:37.348Z,19.92
2023-05-02T01:22:06.296Z,24.55
2023-05-02T01:24:36.561Z,24.65
2023-05-02T01:27:22.528Z,21.65
2023-05-02T01:29:51.928Z,22.40
2023-05-02T01:32:21.491Z,26.95
2023-05-02T01:34:49.353Z,24.00
2023-05-02T01:37:18.607Z,21.88
2023-05-02T01:39:47.546Z,24.83
2023-05-02T01:42:15.779Z,22.83
2023-05-02T01:44:44.629Z,24.60
2023-05-02T01:47:13.106Z,22.52
2023-05-02T01:49:41.836Z,21.77
2023-05-02T01:52:11.551Z,26.08
2023-05-02T01:54:41.253Z,22.85
2023-05-02T01:57:09.996Z,19.85
2023-05-02T01:59:38.197Z,26.63
2023-05-02T02:02:06.619Z,29.48
2023-05-02T02:04:35.638Z,25.42
2023-05-02T02:07:04.441Z,24.20
2023-05-02T02:09:32.344Z,20.10
2023-05-02T02:12:06.447Z,21.60
2023-05-02T02:14:44.740Z,24.48
2023-05-02T02:17:14.295Z,26.20
2023-05-02T02:19:42.211Z,22.88
2023-05-02T02:22:10.043Z,21.40
2023-05-02T02:24:38.558Z,21.60
2023-05-02T02:30:16.869Z,21.08
2023-05-02T02:32:44.486Z,22.77
2023-05-02T02:35:12.288Z,25.35
2023-05-02T02:37:47.178Z,23.45
2023-05-02T02:40:18.582Z,20.15
2023-05-02T02:43:10.972Z,21.00
2023-05-02T02:45:47.412Z,24.20
2023-05-02T02:48:21.355Z,22.92
2023-05-02T02:51:07.203Z,25.15
2023-05-02T02:53:48.258Z,26.90
2023-05-02T02:56:17.259Z,23.23
2023-05-02T02:59:01.594Z,21.75
2023-05-02T03:01:32.570Z,24.88
2023-05-02T03:04:00.803Z,24.42
2023-05-02T03:06:28.577Z,26.52
2023-05-02T03:08:57.531Z,25.88
2023-05-02T03:11:29.735Z,27.27
2023-05-02T03:13:58.582Z,22.80
2023-05-02T03:16:33.400Z,24.58
2023-05-02T03:19:01.792Z,24.25
2023-05-02T03:21:31.666Z,22.77
2023-05-02T03:24:05.409Z,19.75
2023-05-02T03:26:32.942Z,20.27
2023-05-02T03:29:01.059Z,23.00
2023-05-02T03:31:37.184Z,23.50
2023-05-02T03:34:05.343Z,23.45
2023-05-02T03:36:33.840Z,17.77
2023-05-02T03:39:01.595Z,19.98
2023-05-02T03:41:30.425Z,20.85
2023-05-02T03:44:03.741Z,22.50
2023-05-02T03:46:32.636Z,26.10
2023-05-02T03:49:01.824Z,23.27
2023-05-02T03:51:29.222Z,18.45
2023-05-02T03:53:58.570Z,22.13
2023-05-02T03:56:26.595Z,30.67
2023-05-02T03:59:09.949Z,21.23
2023-05-02T04:01:38.781Z,19.70
2023-05-02T04:04:07.391Z,13.00
2023-05-02T04:06:40.460Z,13.55
2023-05-02T04:09:09.604Z,21.70
2023-05-02T04:11:43.490Z,24.63
2023-05-02T04:14:13.171Z,24.70
2023-05-02T04:16:42.396Z,24.02
2023-05-02T04:19:11.926Z,23.67
2023-05-02T04:21:40.013Z,19.23
2023-05-02T04:24:08.831Z,20.42
2023-05-02T04:26:37.219Z,16.27
2023-05-02T04:29:08.561Z,15.45
2023-05-02T04:31:36.831Z,19.60
2023-05-02T04:34:04.715Z,25.92
2023-05-02T04:36:37.738Z,21.42
2023-05-02T04:39:07.949Z,20.45
2023-05-02T04:41:37.910Z,21.95
2023-05-02T04:44:07.711Z,20.92
2023-05-02T04:46:36.666Z,17.63
2023-05-02T04:49:04.270Z,17.70
2023-05-02T04:51:32.016Z,15.23
2023-05-02T04:54:00.701Z,9.38
2023-05-02T04:56:28.687Z,11.52
2023-05-02T04:58:56.215Z,8.77
2023-05-02T05:01:24.664Z,7.13
2023-05-02T05:03:52.591Z,9.80
2023-05-02T05:06:20.675Z,6.40
2023-05-02T05:08:48.806Z,7.18
2023-05-02T05:11:17.236Z,6.70
2023-05-02T05:13:44.779Z,6.00
2023-05-02T05:16:13.813Z,6.82
2023-05-02T05:18:42.657Z,5.55
2023-05-02T05:21:13.120Z,5.65
2023-05-02T05:23:46.171Z,5.50
2023-05-02T05:26:17.533Z,6.90
2023-05-02T05:28:50.454Z,8.32
2023-05-02T05:31:19.114Z,8.00
2023-05-02T05:33:50.512Z,8.85
2023-05-02T05:36:18.660Z,5.47
2023-05-02T05:38:46.502Z,11.32
2023-05-02T05:41:14.682Z,15.13
2023-05-02T05:43:47.067Z,13.95
2023-05-02T05:46:14.692Z,14.65
2023-05-02T05:48:42.225Z,11.90
2023-05-02T05:51:10.403Z,8.10
2023-05-02T05:53:37.997Z,9.02
2023-05-02T05:56:14.407Z,6.03
2023-05-02T05:58:48.665Z,5.63
2023-05-02T06:01:16.164Z,5.03
2023-05-02T06:03:43.825Z,5.28
2023-05-02T06:06:11.732Z,4.57
2023-05-02T06:08:39.384Z,6.78
2023-05-02T06:11:11.778Z,6.07
2023-05-02T06:13:39.311Z,11.20
2023-05-02T06:16:08.187Z,7.10
2023-05-02T06:18:35.767Z,5.90
2023-05-02T06:21:06.868Z,5.93
2023-05-02T06:23:34.656Z,7.78
2023-05-02T06:26:03.183Z,6.57
2023-05-02T06:28:30.894Z,7.07
2023-05-02T06:31:01.806Z,9.63
2023-05-02T06:33:29.904Z,7.45
2023-05-02T06:35:59.124Z,10.13
2023-05-02T06:38:27.362Z,7.38
2023-05-02T06:40:54.976Z,6.13
2023-05-02T06:43:22.400Z,5.00
2023-05-02T06:45:49.906Z,4.70
2023-05-02T06:48:17.495Z,8.68
2023-05-02T06:50:47.307Z,4.60
2023-05-02T06:53:15.283Z,5.00
2023-05-02T06:55:42.778Z,4.30
2023-05-02T06:58:10.617Z,4.35
2023-05-02T07:00:38.259Z,6.65
2023-05-02T07:03:05.775Z,3.80
2023-05-02T07:05:33.325Z,4.82
2023-05-02T07:08:00.828Z,5.72
2023-05-02T07:10:28.361Z,3.97
2023-05-02T07:12:56.028Z,5.72
2023-05-02T07:15:23.503Z,6.93
2023-05-02T07:17:51.080Z,6.88
2023-05-02T07:20:18.835Z,5.55
2023-05-02T07:22:46.241Z,5.85
2023-05-02T07:25:13.861Z,7.10
2023-05-02T07:27:41.342Z,7.90
2023-05-02T07:30:09.085Z,5.18
2023-05-02T07:32:36.776Z,4.75
2023-05-02T07:35:04.292Z,5.10
2023-05-02T07:37:37.984Z,5.95
2023-05-02T07:40:05.843Z,4.15
2023-05-02T07:42:33.806Z,7.50
2023-05-02T07:45:01.276Z,7.53
2023-05-02T07:47:29.878Z,4.90
2023-05-02T07:49:57.559Z,4.95
2023-05-02T07:52:25.220Z,5.03
2023-05-02T07:54:52.976Z,6.38
2023-05-02T07:57:20.556Z,5.22
2023-05-02T07:59:48.291Z,4.72
2023-05-02T08:02:17.716Z,4.55
2023-05-02T08:04:45.389Z,7.22
2023-05-02T08:07:12.839Z,4.03
2023-05-02T08:09:40.547Z,5.95
2023-05-02T08:12:07.981Z,4.18
2023-05-02T08:14:35.583Z,5.65
2023-05-02T08:17:03.232Z,5.25
2023-05-02T08:19:30.633Z,4.97
2023-05-02T08:21:58.111Z,5.70
2023-05-02T08:24:25.693Z,6.28
2023-05-02T08:26:53.188Z,4.80
2023-05-02T08:29:24.082Z,7.07
2023-05-02T08:31:51.702Z,7.32
2023-05-02T08:34:19.296Z,6.15
2023-05-02T08:36:47.711Z,6.57
2023-05-02T08:39:15.365Z,4.80
2023-05-02T08:41:42.833Z,6.45
2023-05-02T08:44:10.492Z,4.95
2023-05-02T08:46:41.692Z,6.78
2023-05-02T08:49:13.992Z,4.65
2023-05-02T08:51:42.403Z,7.32
2023-05-02T08:54:10.579Z,5.43
2023-05-02T08:56:38.892Z,5.60
2023-05-02T08:59:08.232Z,7.22
2023-05-02T09:01:36.800Z,4.88
2023-05-02T09:04:04.939Z,9.20
2023-05-02T09:06:33.051Z,4.40
2023-05-02T09:09:01.252Z,6.10
2023-05-02T09:11:30.056Z,6.25
2023-05-02T09:14:03.938Z,5.47
2023-05-02T09:16:39.312Z,4.32
2023-05-02T09:19:07.262Z,5.72
2023-05-02T09:21:40.126Z,4.82
2023-05-02T09:24:17.240Z,7.03
2023-05-02T09:26:45.060Z,5.85
2023-05-02T09:29:12.688Z,5.82
2023-05-02T09:34:14.083Z,5.90
2023-05-02T09:36:42.733Z,6.88
2023-05-02T09:39:11.932Z,7.13
2023-05-02T09:41:49.438Z,7.50
2023-05-02T09:44:21.232Z,5.97
2023-05-02T09:46:53.017Z,6.90
2023-05-02T09:49:21.413Z,7.97
2023-05-02T09:51:49.262Z,5.43
2023-05-02T09:54:39.122Z,7.22
2023-05-02T09:57:07.474Z,7.78
2023-05-02T09:59:35.070Z,6.60
2023-05-02T10:02:07.326Z,6.35
2023-05-02T10:04:36.522Z,7.40
2023-05-02T10:07:06.782Z,5.30
2023-05-02T10:09:36.654Z,6.63
2023-05-02T10:12:05.434Z,5.80
2023-05-02T10:14:35.177Z,4.93
2023-05-02T10:17:06.511Z,6.28
2023-05-02T10:19:39.730Z,7.57
2023-05-02T10:22:07.891Z,6.75
2023-05-02T10:24:35.862Z,7.22
2023-05-02T10:27:05.644Z,6.03
2023-05-02T10:29:33.261Z,6.78
2023-05-02T10:32:02.307Z,6.10
2023-05-02T10:34:32.968Z,5.32
2023-05-02T10:37:03.693Z,6.75
2023-05-02T10:39:33.005Z,6.15
2023-05-02T10:42:02.372Z,5.65
2023-05-02T10:44:36.980Z,6.78
2023-05-02T10:47:23.409Z,5.55
2023-05-02T10:49:52.531Z,7.90
2023-05-02T10:52:39.052Z,5.50
2023-05-02T10:55:24.005Z,6.57
2023-05-02T10:58:01.052Z,6.53
2023-05-02T11:00:33.808Z,5.55
2023-05-02T11:03:02.175Z,7.97
2023-05-02T11:05:30.515Z,6.60
2023-05-02T11:08:17.193Z,9.25
2023-05-02T11:10:46.493Z,6.18
2023-05-02T11:13:14.192Z,5.90
2023-05-02T11:15:41.567Z,6.18
2023-05-02T11:18:12.154Z,7.07
2023-05-02T11:20:40.451Z,7.90
2023-05-02T11:23:22.630Z,8.60
2023-05-02T11:25:51.089Z,6.80
2023-05-02T11:28:37.073Z,6.50
2023-05-02T11:31:08.210Z,6.82
2023-05-02T11:33:35.854Z,5.32
2023-05-02T11:36:03.526Z,5.63
2023-05-02T11:38:38.348Z,5.85
2023-05-02T11:41:05.998Z,5.80
2023-05-02T11:43:33.595Z,6.40
2023-05-02T11:46:02.209Z,6.38
2023-05-02T11:48:30.097Z,6.40
2023-05-02T11:51:07.195Z,6.22
2023-05-02T11:53:35.135Z,5.97
2023-05-02T11:56:04.370Z,5.70
2023-05-02T11:58:33.627Z,8.32
2023-05-02T12:01:13.385Z,6.80
2023-05-02T12:03:41.491Z,9.18
2023-05-02T12:06:13.854Z,5.85
2023-05-02T12:08:42.201Z,6.88
2023-05-02T12:11:09.993Z,5.60
2023-05-02T12:13:45.165Z,6.13
2023-05-02T12:16:12.960Z,6.50
2023-05-02T12:18:41.010Z,7.10
2023-05-02T12:21:08.520Z,5.25
2023-05-02T12:23:37.450Z,5.78
2023-05-02T12:26:21.687Z,6.88
2023-05-02T12:28:54.921Z,7.07
2023-05-02T12:31:23.940Z,6.20
2023-05-02T12:33:52.722Z,6.53
2023-05-02T12:36:20.355Z,8.73
2023-05-02T12:38:53.307Z,6.60
2023-05-02T12:41:32.073Z,7.55
2023-05-02T12:44:00.809Z,6.47
2023-05-02T12:46:31.822Z,6.90
2023-05-02T12:49:18.162Z,6.03
2023-05-02T12:51:54.072Z,5.15
2023-05-02T12:54:21.750Z,6.00
2023-05-02T12:56:51.915Z,7.28
2023-05-02T12:59:27.394Z,5.93
2023-05-02T13:01:55.004Z,5.35
2023-05-02T13:04:22.677Z,5.70
2023-05-02T13:06:50.136Z,4.78
2023-05-02T13:09:18.854Z,4.45
2023-05-02T13:11:46.289Z,5.47
2023-05-02T13:14:13.696Z,7.50
2023-05-02T13:16:41.564Z,6.97
2023-05-02T13:19:09.742Z,5.15
2023-05-02T13:21:37.147Z,4.95
2023-05-02T13:24:04.896Z,4.15
2023-05-02T13:26:32.776Z,5.50
2023-05-02T13:29:00.235Z,3.97
2023-05-02T13:31:27.733Z,6.32
2023-05-02T13:33:55.320Z,6.13
2023-05-02T13:36:24.558Z,10.48
2023-05-02T13:38:51.964Z,11.77
2023-05-02T13:41:19.360Z,12.48
2023-05-02T13:43:46.821Z,12.30
2023-05-02T13:46:14.704Z,14.35
2023-05-02T13:48:42.997Z,6.57
2023-05-02T13:51:10.406Z,8.20
2023-05-02T13:53:38.053Z,8.60
2023-05-02T13:56:05.852Z,10.15
2023-05-02T13:58:33.362Z,7.82
2023-05-02T14:01:01.236Z,7.82
2023-05-02T14:03:28.950Z,7.90
2023-05-02T14:05:56.592Z,6.65
2023-05-02T14:08:24.024Z,8.18
2023-05-02T14:10:51.468Z,6.05
2023-05-02T14:13:19.047Z,5.95
2023-05-02T14:15:46.495Z,5.53
2023-05-02T14:18:13.998Z,6.63
2023-05-02T14:20:41.480Z,7.13
2023-05-02T14:23:08.903Z,5.35
2023-05-02T14:25:36.793Z,6.80
2023-05-02T14:28:04.727Z,7.57
2023-05-02T14:30:32.510Z,6.55
2023-05-02T14:33:00.073Z,6.60
2023-05-02T14:35:27.827Z,8.20
2023-05-02T14:37:55.274Z,7.88
2023-05-02T14:40:22.726Z,7.50
2023-05-02T14:42:50.180Z,7.45
2023-05-02T14:45:17.673Z,6.95
2023-05-02T14:47:45.268Z,7.65
2023-05-02T14:50:12.799Z,6.55
2023-05-02T14:52:40.246Z,7.80
2023-05-02T14:55:07.771Z,7.40
2023-05-02T14:57:35.875Z,7.82
2023-05-02T15:00:04.572Z,7.00
2023-05-02T15:02:32.394Z,6.85
2023-05-02T15:05:00.233Z,6.53
2023-05-02T15:07:28.913Z,10.18
2023-05-02T15:09:56.432Z,6.82
2023-05-02T15:12:24.591Z,7.05
2023-05-02T15:14:52.045Z,5.63
2023-05-02T15:17:19.530Z,6.95
2023-05-02T15:19:46.937Z,6.53
2023-05-02T15:22:15.952Z,5.40
2023-05-02T15:24:43.516Z,6.82
2023-05-02T15:27:10.899Z,7.97
2023-05-02T15:29:38.397Z,8.70
2023-05-02T15:32:06.002Z,7.35
2023-05-02T15:34:33.432Z,6.55
2023-05-02T15:37:01.431Z,7.53
2023-05-02T15:39:29.175Z,6.60
2023-05-02T15:41:58.277Z,6.63
2023-05-02T15:44:26.610Z,7.43
2023-05-02T15:46:55.992Z,9.57
2023-05-02T15:49:25.060Z,8.00
2023-05-02T15:51:52.501Z,8.90
2023-05-02T15:54:20.201Z,8.05
2023-05-02T15:56:47.582Z,9.20
2023-05-02T15:59:15.147Z,9.18
2023-05-02T16:01:42.657Z,7.93
2023-05-02T16:04:10.343Z,11.57
2023-05-02T16:06:38.183Z,26.33
2023-05-02T16:09:06.718Z,17.35
2023-05-02T16:11:34.935Z,12.77
2023-05-02T16:14:02.384Z,11.55
2023-05-02T16:16:29.746Z,11.02
2023-05-02T16:18:57.300Z,9.02
2023-05-02T16:21:24.760Z,8.32
2023-05-02T16:23:52.359Z,11.50
2023-05-02T16:26:20.893Z,10.45
2023-05-02T16:28:48.425Z,10.63
2023-05-02T16:31:16.173Z,10.13
2023-05-02T16:33:43.655Z,10.05
2023-05-02T16:36:11.383Z,9.45
2023-05-02T16:38:38.862Z,9.00
2023-05-02T16:41:07.274Z,13.98
2023-05-02T16:43:35.073Z,17.20
2023-05-02T16:46:03.483Z,15.95
2023-05-02T16:48:31.178Z,15.77
2023-05-02T16:50:58.805Z,17.75
2023-05-02T16:53:26.686Z,19.00
2023-05-02T16:55:54.568Z,22.10
2023-05-02T16:58:22.128Z,20.30
2023-05-02T17:00:49.492Z,25.50
2023-05-02T17:03:16.959Z,26.20
2023-05-02T17:05:44.492Z,30.83
2023-05-02T17:08:11.976Z,27.85
2023-05-02T17:10:39.485Z,25.88
2023-05-02T17:13:07.775Z,28.45
2023-05-02T17:15:38.680Z,28.45
2023-05-02T17:18:06.433Z,28.80
2023-05-02T17:20:34.043Z,26.67
2023-05-02T17:23:02.282Z,26.58
2023-05-02T17:25:30.720Z,27.40
2023-05-02T17:27:58.146Z,28.23
2023-05-02T17:30:25.774Z,33.28
2023-05-02T17:32:53.164Z,29.25
2023-05-02T17:35:20.723Z,28.70
2023-05-02T17:37:48.171Z,29.00
2023-05-02T17:40:15.538Z,30.58
2023-05-02T17:42:45.522Z,27.73
2023-05-02T17:45:13.007Z,21.95
2023-05-02T17:47:40.462Z,25.70
2023-05-02T17:50:08.950Z,21.60
2023-05-02T17:52:36.405Z,23.10
2023-05-02T17:55:04.279Z,20.58
2023-05-02T17:57:31.833Z,18.48
2023-05-02T18:00:00.114Z,14.82
2023-05-02T18:02:28.058Z,12.38
2023-05-02T18:04:55.564Z,15.43
2023-05-02T18:07:29.090Z,13.05
2023-05-02T18:10:02.572Z,13.95
2023-05-02T18:12:31.554Z,17.50
2023-05-02T18:14:58.965Z,16.45
2023-05-02T18:17:27.066Z,14.30
2023-05-02T18:19:54.645Z,13.25
2023-05-02T18:22:22.174Z,13.50
2023-05-02T18:24:49.953Z,14.35
2023-05-02T18:27:18.944Z,15.18
2023-05-02T18:29:47.424Z,19.58
2023-05-02T18:32:14.886Z,18.98
2023-05-02T18:34:42.204Z,17.58
2023-05-02T18:37:09.879Z,18.95
2023-05-02T18:39:37.321Z,18.58
2023-05-02T18:42:05.230Z,19.42
2023-05-02T18:44:32.912Z,19.73
2023-05-02T18:47:01.432Z,18.55
2023-05-02T18:49:28.910Z,19.73
2023-05-02T18:51:56.283Z,20.73
2023-05-02T18:54:24.428Z,19.92
2023-05-02T18:56:51.866Z,23.77
2023-05-02T18:59:19.324Z,20.60
2023-05-02T19:01:48.406Z,21.58
2023-05-02T19:04:16.135Z,22.40
2023-05-02T19:06:43.897Z,23.30
2023-05-02T19:09:13.693Z,23.67
2023-05-02T19:11:41.368Z,24.92
2023-05-02T19:14:08.937Z,28.33
2023-05-02T19:16:38.296Z,30.88
2023-05-02T19:19:06.093Z,28.60
2023-05-02T19:21:36.919Z,30.48
2023-05-02T19:24:04.418Z,32.03
2023-05-02T19:26:32.073Z,27.02
2023-05-02T19:28:59.496Z,28.90
2023-05-02T19:31:27.277Z,27.58
2023-05-02T19:33:55.091Z,29.40
2023-05-02T19:36:23.286Z,30.05
2023-05-02T19:38:54.584Z,29.73
2023-05-02T19:41:22.633Z,30.83
2023-05-02T19:43:50.030Z,33.03
2023-05-02T19:46:18.215Z,37.42
2023-05-02T19:48:45.936Z,39.63
2023-05-02T19:51:13.462Z,41.55
2023-05-02T19:53:40.916Z,47.33
2023-05-02T19:56:08.587Z,45.88
2023-05-02T19:58:36.421Z,46.05
2023-05-02T20:01:03.952Z,51.10
2023-05-02T20:03:31.484Z,48.60
2023-05-02T20:05:59.008Z,49.65
2023-05-02T20:08:28.092Z,52.38
2023-05-02T20:10:56.438Z,54.22
2023-05-02T20:13:23.814Z,47.88
2023-05-02T20:15:51.923Z,52.90
2023-05-02T20:18:19.451Z,48.28
2023-05-02T20:20:47.227Z,45.88
2023-05-02T20:23:14.813Z,47.17
2023-05-02T20:25:43.020Z,44.42
2023-05-02T20:28:11.104Z,45.67
2023-05-02T20:30:42.118Z,43.65
2023-05-02T20:33:15.684Z,43.42
2023-05-02T20:35:44.621Z,41.53
2023-05-02T20:38:12.523Z,46.78
2023-05-02T20:40:40.820Z,47.25
2023-05-02T20:43:08.880Z,50.00
2023-05-02T20:45:36.555Z,45.05
2023-05-02T20:48:03.956Z,46.42
2023-05-02T20:50:31.456Z,50.78
2023-05-02T20:52:59.423Z,53.95
2023-05-02T20:55:27.684Z,54.67
2023-05-02T20:57:55.221Z,62.22
2023-05-02T21:00:22.857Z,55.80
2023-05-02T21:02:50.722Z,54.15
2023-05-02T21:05:18.341Z,56.25
2023-05-02T21:07:45.832Z,49.72
2023-05-02T21:10:13.623Z,55.92
2023-05-02T21:12:41.306Z,51.97
2023-05-02T21:15:08.853Z,50.03
2023-05-02T21:17:36.482Z,45.08
2023-05-02T21:20:05.045Z,48.15
2023-05-02T21:22:34.153Z,47.67
2023-05-02T21:25:01.787Z,46.03
2023-05-02T21:27:30.683Z,48.35
2023-05-02T21:29:59.447Z,46.25
2023-05-02T21:32:29.450Z,49.00
2023-05-02T21:34:57.677Z,45.60
2023-05-02T21:37:25.251Z,45.25
2023-05-02T21:39:53.269Z,43.40
2023-05-02T21:42:21.587Z,43.10
2023-05-02T21:44:51.684Z,42.33
2023-05-02T21:47:21.605Z,42.13
2023-05-02T21:49:50.452Z,42.83
2023-05-02T21:52:19.224Z,43.10
2023-05-02T21:54:50.887Z,42.80
2023-05-02T21:57:19.134Z,39.97
2023-05-02T21:59:46.737Z,46.67
2023-05-02T22:02:14.342Z,43.67
2023-05-02T22:04:41.745Z,49.40
2023-05-02T22:07:09.409Z,47.47
2023-05-02T22:09:37.100Z,47.30
2023-05-02T22:12:04.652Z,47.35
2023-05-02T22:14:41.612Z,48.05
2023-05-02T22:17:12.221Z,48.47
2023-05-02T22:19:40.753Z,52.55
2023-05-02T22:22:08.338Z,49.47
2023-05-02T22:24:36.002Z,49.33
2023-05-02T22:27:03.476Z,54.03
2023-05-02T22:29:31.168Z,47.03
2023-05-02T22:31:58.783Z,49.75
2023-05-02T22:34:26.284Z,50.88
2023-05-02T22:36:53.807Z,53.92
2023-05-02T22:39:21.623Z,59.63
2023-05-02T22:41:49.338Z,54.60
2023-05-02T22:44:16.845Z,58.22
2023-05-02T22:46:44.299Z,55.97
2023-05-02T22:49:11.797Z,57.47
2023-05-02T22:51:42.575Z,59.42
2023-05-02T22:54:10.652Z,53.63
2023-05-02T22:56:38.188Z,57.00
2023-05-02T22:59:05.737Z,50.40
2023-05-02T23:01:33.572Z,47.80
2023-05-02T23:04:02.072Z,49.40
2023-05-02T23:06:30.085Z,46.58
2023-05-02T23:08:58.050Z,46.63
2023-05-02T23:11:26.014Z,47.28
2023-05-02T23:13:53.592Z,45.10
2023-05-02T23:16:21.099Z,47.22
2023-05-02T23:18:48.614Z,46.58
2023-05-02T23:21:16.525Z,51.47
2023-05-02T23:23:43.943Z,51.60
2023-05-02T23:26:11.616Z,57.17
2023-05-02T23:28:39.625Z,50.55
2023-05-02T23:31:07.134Z,57.10
2023-05-02T23:33:36.217Z,55.25
2023-05-02T23:36:03.999Z,59.42
2023-05-02T23:38:32.116Z,60.30
2023-05-02T23:40:59.480Z,57.67
2023-05-02T23:43:27.334Z,55.90
2023-05-02T23:45:54.842Z,60.97
2023-05-02T23:48:22.286Z,59.13
2023-05-02T23:50:49.663Z,61.75
2023-05-02T23:53:17.089Z,62.50
2023-05-02T23:55:44.468Z,61.60
2023-05-02T23:58:11.879Z,55.03
